Time;durP1;ratioP1;P1;durP2;ratioP2;P2;SDS_P1;SDS_P2;PMS_P1;PMS_P2;Temp;Humidity;BMP_temperature;BMP_pressure;BME280_temperature;BME280_humidity;BME280_pressure;Samples;Min_cycle;Max_cycle;Signal;HPM_P1;HPM_P2
2024/02/22 00:00:33;;;;;;;25.40;21.10;;;;;;;4.80;100.00;100517.31;87480;272;137454;-73
2024/02/22 00:02:35;;;;;;;29.30;22.30;;;;;;;4.81;100.00;100512.16;87743;271;22552;-74
2024/02/22 00:04:37;;;;;;;25.30;20.90;;;;;;;4.76;100.00;100513.16;87915;271;137079;-75
2024/02/22 00:06:39;;;;;;;24.60;19.90;;;;;;;4.71;100.00;100511.18;87778;279;22632;-80
2024/02/22 00:08:41;;;;;;;25.90;19.20;;;;;;;4.70;100.00;100512.71;87637;278;137083;-78
2024/02/22 00:10:43;;;;;;;27.20;21.00;;;;;;;4.68;100.00;100513.01;87694;275;22562;-80
2024/02/22 00:12:45;;;;;;;27.50;21.50;;;;;;;4.64;100.00;100510.27;87787;276;137141;-76
2024/02/22 00:14:47;;;;;;;28.90;22.50;;;;;;;4.60;100.00;100507.52;87745;278;22635;-78
2024/02/22 00:16:49;;;;;;;29.60;23.00;;;;;;;4.57;100.00;100503.67;87723;271;138217;-80
2024/02/22 00:18:51;;;;;;;29.20;22.60;;;;;;;4.57;100.00;100501.08;87964;271;24606;-76
2024/02/22 00:20:52;;;;;;;26.50;20.90;;;;;;;4.57;100.00;100500.54;87747;269;137275;-78
2024/02/22 00:22:58;;;;;;;27.70;22.20;;;;;;;4.56;100.00;100496.23;87673;267;25266;-78
2024/02/22 00:25:03;;;;;;;28.30;22.20;;;;;;;4.54;100.00;100495.13;87424;268;137615;-77
2024/02/22 00:27:04;;;;;;;25.90;21.10;;;;;;;4.52;100.00;100493.41;87738;266;22541;-79
2024/02/22 00:29:06;;;;;;;26.30;21.00;;;;;;;4.50;100.00;100488.01;87748;271;137185;-77
2024/02/22 00:31:08;;;;;;;25.40;20.50;;;;;;;4.48;100.00;100484.42;87813;272;24183;-77
2024/02/22 00:33:14;;;;;;;28.10;19.80;;;;;;;4.48;100.00;100484.98;87556;275;137163;-78
2024/02/22 00:35:16;;;;;;;25.50;20.10;;;;;;;4.48;100.00;100485.98;87822;267;22594;-78
2024/02/22 00:37:18;;;;;;;23.40;18.00;;;;;;;4.50;100.00;100487.27;87453;268;136431;-77
2024/02/22 00:39:20;;;;;;;27.40;21.60;;;;;;;4.47;100.00;100482.91;87673;267;22579;-81
2024/02/22 00:41:21;;;;;;;27.30;19.50;;;;;;;4.46;100.00;100484.47;87498;267;136989;-79
2024/02/22 00:43:24;;;;;;;22.90;18.70;;;;;;;4.44;100.00;100481.30;87587;271;25714;-77
2024/02/22 00:45:25;;;;;;;22.10;19.10;;;;;;;4.46;100.00;100474.77;87459;267;136849;-79
2024/02/22 00:47:27;;;;;;;25.10;19.90;;;;;;;4.50;100.00;100477.19;87681;278;22574;-76
2024/02/22 00:49:29;;;;;;;25.60;19.60;;;;;;;4.56;100.00;100474.02;87570;272;137506;-77
2024/02/22 00:51:31;;;;;;;23.20;17.80;;;;;;;4.57;100.00;100476.25;87647;278;25124;-79
2024/02/22 00:53:33;;;;;;;22.40;18.00;;;;;;;4.58;100.00;100469.83;87621;274;137968;-79
2024/02/22 00:55:36;;;;;;;26.70;19.50;;;;;;;4.58;100.00;100471.59;87890;271;22573;-79
2024/02/22 00:57:38;;;;;;;21.50;17.40;;;;;;;4.57;100.00;100472.75;87578;270;136786;-79
2024/02/22 00:59:39;;;;;;;20.50;17.40;;;;;;;4.51;100.00;100474.50;87559;274;22561;-77
2024/02/22 01:01:41;;;;;;;26.70;18.70;;;;;;;4.45;100.00;100470.80;87594;270;136305;-79
2024/02/22 01:03:43;;;;;;;18.80;16.40;;;;;;;4.45;100.00;100466.77;87874;275;22562;-81
2024/02/22 01:05:45;;;;;;;25.60;18.40;;;;;;;4.49;100.00;100464.08;87590;271;138457;-81
2024/02/22 01:07:47;;;;;;;22.90;19.30;;;;;;;4.55;100.00;100457.97;87727;280;22556;-77
2024/02/22 01:09:49;;;;;;;21.70;17.40;;;;;;;4.58;100.00;100452.60;87747;267;138598;-77
2024/02/22 01:11:51;;;;;;;21.20;17.00;;;;;;;4.58;100.00;100450.92;87629;272;22897;-79
2024/02/22 01:13:53;;;;;;;23.60;17.40;;;;;;;4.59;100.00;100448.61;87533;268;136984;-79
2024/02/22 01:15:54;;;;;;;22.10;18.00;;;;;;;4.59;100.00;100449.95;87751;274;22630;-77
2024/02/22 01:17:56;;;;;;;24.80;18.90;;;;;;;4.61;100.00;100447.68;87722;278;138010;-76
2024/02/22 01:19:58;;;;;;;26.30;17.60;;;;;;;4.60;100.00;100457.48;87819;271;24092;-76
2024/02/22 01:22:02;;;;;;;23.30;18.50;;;;;;;4.58;100.00;100458.39;87941;270;136155;-78
2024/02/22 01:24:04;;;;;;;22.60;19.00;;;;;;;4.58;100.00;100461.75;87840;277;136798;-77
2024/02/22 01:26:07;;;;;;;21.60;16.80;;;;;;;4.59;100.00;100459.15;87927;267;22559;-81
2024/02/22 01:28:12;;;;;;;21.80;17.60;;;;;;;4.59;100.00;100456.29;87970;274;136355;-79
2024/02/22 01:30:14;;;;;;;21.40;16.70;;;;;;;4.61;100.00;100450.02;88917;270;22889;-80
2024/02/22 01:32:16;;;;;;;24.60;16.90;;;;;;;4.64;100.00;100455.45;90016;262;136974;-80
2024/02/22 01:34:18;;;;;;;19.40;16.10;;;;;;;4.69;100.00;100455.02;89753;273;22668;-79
2024/02/22 01:36:21;;;;;;;22.10;16.70;;;;;;;4.74;100.00;100455.44;89557;266;136961;-80
2024/02/22 01:38:22;;;;;;;19.20;15.30;;;;;;;4.80;100.00;100454.17;89225;276;22534;-78
2024/02/22 01:40:25;;;;;;;22.80;17.20;;;;;;;4.85;100.00;100449.59;87863;271;137043;-79
2024/02/22 01:42:27;;;;;;;21.00;15.50;;;;;;;4.85;100.00;100450.98;88186;278;22641;-78
2024/02/22 01:44:29;;;;;;;21.70;16.60;;;;;;;4.81;100.00;100442.08;88549;274;136253;-77
2024/02/22 01:46:32;;;;;;;21.40;16.90;;;;;;;4.76;100.00;100432.34;88186;271;22555;-75
2024/02/22 01:48:34;;;;;;;21.20;16.30;;;;;;;4.70;100.00;100432.58;88186;266;136383;-77
2024/02/22 01:50:40;;;;;;;18.90;15.80;;;;;;;4.66;100.00;100434.30;88309;262;23788;-76
2024/02/22 01:52:42;;;;;;;20.00;15.10;;;;;;;4.66;100.00;100431.84;87964;274;136932;-77
2024/02/22 01:54:44;;;;;;;22.10;17.10;;;;;;;4.65;100.00;100431.05;87736;271;25124;-77
2024/02/22 01:56:46;;;;;;;19.70;14.90;;;;;;;4.64;100.00;100422.19;87701;270;136787;-77
2024/02/22 01:58:49;;;;;;;16.30;13.00;;;;;;;4.64;100.00;100420.27;87608;271;25214;-77
2024/02/22 02:00:55;;;;;;;20.40;14.10;;;;;;;4.60;100.00;100418.94;87641;270;136401;-76
2024/02/22 02:02:59;;;;;;;17.50;14.00;;;;;;;4.54;100.00;100414.35;87704;279;22666;-77
2024/02/22 02:05:01;;;;;;;19.50;15.00;;;;;;;4.47;100.00;100423.15;87680;267;136830;-76
2024/02/22 02:07:03;;;;;;;17.50;14.70;;;;;;;4.46;100.00;100423.80;87671;275;25111;-78
2024/02/22 02:09:05;;;;;;;17.40;13.80;;;;;;;4.47;100.00;100425.91;87502;270;137078;-79
2024/02/22 02:13:45;;;;;;;17.20;13.90;;;;;;;4.27;100.00;100411.65;85422;301;604371;-77
2024/02/22 02:15:47;;;;;;;19.30;15.20;;;;;;;4.25;100.00;100414.98;86525;291;23017;-76
2024/02/22 02:17:49;;;;;;;16.10;13.90;;;;;;;4.20;100.00;100413.06;86524;287;137353;-78
2024/02/22 02:19:55;;;;;;;19.90;14.10;;;;;;;4.18;100.00;100408.66;86683;284;24031;-77
2024/02/22 02:22:29;;;;;;;15.80;12.80;;;;;;;4.18;100.00;100409.66;87340;283;136199;-76
2024/02/22 02:25:00;;;;;;;16.10;12.40;;;;;;;4.20;100.00;100408.78;87036;272;136355;-76
2024/02/22 02:27:04;;;;;;;15.30;12.60;;;;;;;4.23;100.00;100403.44;86752;280;804194;-76
2024/02/22 02:29:06;;;;;;;15.60;11.60;;;;;;;4.25;100.00;100402.23;87189;274;136274;-76
2024/02/22 02:31:08;;;;;;;13.80;12.00;;;;;;;4.24;100.00;100394.55;87411;284;25227;-75
2024/02/22 02:33:10;;;;;;;15.60;13.00;;;;;;;4.23;100.00;100393.71;87484;278;138213;-74
2024/02/22 02:35:12;;;;;;;17.60;12.50;;;;;;;4.24;100.00;100393.27;87398;279;22567;-76
2024/02/22 02:37:14;;;;;;;14.50;12.10;;;;;;;4.25;100.00;100395.16;87118;268;136763;-77
2024/02/22 02:39:16;;;;;;;22.00;12.00;;;;;;;4.27;100.00;100395.16;87342;279;22956;-77
2024/02/22 02:41:17;;;;;;;12.30;11.00;;;;;;;4.28;100.00;100399.39;87066;280;136084;-77
2024/02/22 02:43:19;;;;;;;17.60;13.50;;;;;;;4.25;100.00;100405.16;87239;275;22570;-75
2024/02/22 02:45:21;;;;;;;13.40;11.90;;;;;;;4.22;100.00;100404.61;87140;272;136208;-77
2024/02/22 02:47:23;;;;;;;16.20;12.10;;;;;;;4.21;100.00;100396.79;87456;283;22706;-77
2024/02/22 02:49:25;;;;;;;14.80;12.20;;;;;;;4.27;100.00;100399.52;87216;275;137828;-77
2024/02/22 02:51:28;;;;;;;13.30;10.20;;;;;;;4.32;100.00;100400.27;87222;277;25247;-77
2024/02/22 02:53:30;;;;;;;15.60;12.50;;;;;;;4.37;100.00;100397.55;87137;285;137697;-76
2024/02/22 02:55:31;;;;;;;14.70;11.00;;;;;;;4.36;100.00;100391.66;87261;292;24148;-77
2024/02/22 02:57:33;;;;;;;14.50;11.10;;;;;;;4.29;100.00;100388.24;87314;272;135990;-75
2024/02/22 02:59:35;;;;;;;15.10;10.90;;;;;;;4.23;100.00;100386.41;87418;275;22576;-77
2024/02/22 03:01:44;;;;;;;12.60;10.60;;;;;;;4.21;100.00;100387.25;87217;279;137933;-76
2024/02/22 03:03:46;;;;;;;13.60;11.20;;;;;;;4.18;100.00;100385.84;87388;283;25301;-77
2024/02/22 03:05:47;;;;;;;12.60;10.60;;;;;;;4.12;100.00;100380.39;87194;279;136719;-79
2024/02/22 03:07:50;;;;;;;12.60;11.20;;;;;;;4.10;100.00;100384.24;87271;271;24376;-76
2024/02/22 03:09:53;;;;;;;14.10;11.10;;;;;;;4.08;100.00;100386.15;87086;283;138067;-76
2024/02/22 03:11:54;;;;;;;12.20;10.70;;;;;;;4.05;100.00;100379.64;87092;284;22724;-75
2024/02/22 03:13:56;;;;;;;14.10;10.20;;;;;;;4.03;100.00;100375.41;87309;275;136420;-76
2024/02/22 03:15:58;;;;;;;11.80;9.10;;;;;;;4.03;100.00;100377.66;87666;265;25358;-76
2024/02/22 03:18:00;;;;;;;12.90;10.90;;;;;;;4.03;100.00;100373.79;87481;265;137133;-77
2024/02/22 03:20:09;;;;;;;13.00;10.20;;;;;;;4.04;100.00;100374.42;87500;277;138106;-75
2024/02/22 03:22:14;;;;;;;11.80;10.40;;;;;;;4.04;100.00;100371.80;87422;273;25228;-76
2024/02/22 03:24:15;;;;;;;12.50;9.60;;;;;;;4.05;100.00;100369.08;87323;270;138816;-75
2024/02/22 03:26:17;;;;;;;12.90;11.00;;;;;;;4.02;100.00;100368.42;87320;274;22624;-77
2024/02/22 03:28:21;;;;;;;12.50;11.20;;;;;;;3.97;100.00;100364.01;87292;274;137305;-76
2024/02/22 03:30:23;;;;;;;13.60;10.40;;;;;;;3.91;100.00;100367.61;87700;274;22578;-75
2024/02/22 03:32:24;;;;;;;14.10;10.90;;;;;;;3.86;100.00;100365.21;87507;271;135999;-75
2024/02/22 03:34:26;;;;;;;12.60;10.30;;;;;;;3.86;100.00;100362.75;87553;274;22553;-76
2024/02/22 03:36:28;;;;;;;12.40;11.00;;;;;;;3.84;100.00;100369.08;87456;274;138120;-76
2024/02/22 03:38:30;;;;;;;12.40;10.70;;;;;;;3.81;100.00;100366.23;87487;277;22579;-78
2024/02/22 03:40:32;;;;;;;12.80;10.80;;;;;;;3.80;100.00;100366.45;87398;281;137831;-76
2024/02/22 03:42:34;;;;;;;14.30;10.60;;;;;;;3.82;100.00;100365.39;87489;273;25101;-75
2024/02/22 03:44:36;;;;;;;11.50;10.00;;;;;;;3.82;100.00;100359.91;87388;270;136515;-75
2024/02/22 03:46:44;;;;;;;14.30;11.50;;;;;;;3.82;100.00;100364.23;87768;270;25217;-80
2024/02/22 03:48:46;;;;;;;12.50;11.20;;;;;;;3.80;100.00;100365.63;87549;273;136466;-77
2024/02/22 03:50:48;;;;;;;14.40;11.40;;;;;;;3.79;100.00;100363.14;87665;269;22583;-77
2024/02/22 03:52:50;;;;;;;12.20;10.90;;;;;;;3.77;100.00;100363.79;87504;277;137833;-74
2024/02/22 03:54:52;;;;;;;15.50;12.80;;;;;;;3.75;100.00;100361.02;87606;268;22534;-76
2024/02/22 03:56:53;;;;;;;15.20;12.10;;;;;;;3.74;100.00;100363.23;87453;270;136384;-79
2024/02/22 03:58:59;;;;;;;15.60;11.50;;;;;;;3.74;100.00;100360.41;87720;269;23997;-78
2024/02/22 04:01:02;;;;;;;18.30;12.50;;;;;;;3.75;100.00;100360.27;87654;273;136595;-78
2024/02/22 04:03:04;;;;;;;15.00;12.30;;;;;;;3.74;100.00;100358.15;87674;269;22574;-84
2024/02/22 04:05:06;;;;;;;15.30;13.10;;;;;;;3.71;100.00;100359.79;87567;269;137803;-78
2024/02/22 04:07:08;;;;;;;16.10;12.20;;;;;;;3.67;100.00;100358.39;87501;271;25207;-78
2024/02/22 04:09:09;;;;;;;17.60;12.60;;;;;;;3.65;100.00;100357.70;87546;271;136569;-78
2024/02/22 04:11:12;;;;;;;15.60;12.00;;;;;;;3.63;100.00;100357.51;87684;278;22544;-77
2024/02/22 04:13:15;;;;;;;14.50;12.10;;;;;;;3.63;100.00;100359.11;87614;270;136622;-77
2024/02/22 04:15:16;;;;;;;17.10;14.60;;;;;;;3.65;100.00;100358.75;87860;266;24026;-78
2024/02/22 04:17:18;;;;;;;16.10;13.40;;;;;;;3.66;100.00;100355.98;87400;273;137086;-78
2024/02/22 04:19:20;;;;;;;16.10;12.70;;;;;;;3.69;100.00;100362.04;87426;280;23615;-78
2024/02/22 04:21:22;;;;;;;18.40;14.20;;;;;;;3.73;100.00;100360.53;87604;274;136764;-78
2024/02/22 04:23:24;;;;;;;14.70;12.50;;;;;;;3.75;100.00;100363.30;87595;278;22578;-78
2024/02/22 04:25:26;;;;;;;20.50;15.60;;;;;;;3.75;100.00;100363.84;87500;278;136697;-75
2024/02/22 04:27:28;;;;;;;18.60;14.10;;;;;;;3.76;100.00;100358.43;87279;271;23289;-79
2024/02/22 04:29:30;;;;;;;20.70;14.60;;;;;;;3.78;100.00;100362.46;87608;271;136569;-80
2024/02/22 04:31:32;;;;;;;18.80;15.40;;;;;;;3.79;100.00;100359.02;87628;271;23998;-78
2024/02/22 04:33:33;;;;;;;17.10;13.80;;;;;;;3.79;100.00;100353.80;87489;271;136882;-79
2024/02/22 04:35:36;;;;;;;23.60;16.70;;;;;;;3.79;100.00;100352.20;87586;264;23875;-76
2024/02/22 04:37:38;;;;;;;19.00;15.00;;;;;;;3.80;100.00;100354.05;87483;278;136568;-77
2024/02/22 04:39:41;;;;;;;17.10;15.00;;;;;;;3.80;100.00;100356.96;87590;277;25257;-78
2024/02/22 04:41:42;;;;;;;17.70;14.80;;;;;;;3.83;100.00;100357.42;87363;271;136583;-77
2024/02/22 04:43:44;;;;;;;17.90;14.70;;;;;;;3.87;100.00;100355.16;87792;274;25224;-77
2024/02/22 04:45:46;;;;;;;18.30;14.90;;;;;;;3.89;100.00;100360.20;87435;274;136561;-77
2024/02/22 04:47:48;;;;;;;17.20;14.20;;;;;;;3.90;100.00;100362.20;87627;266;26317;-76
2024/02/22 04:49:50;;;;;;;18.20;14.20;;;;;;;3.91;100.00;100362.28;87518;276;136770;-77
2024/02/22 04:51:52;;;;;;;18.60;14.30;;;;;;;3.90;100.00;100369.20;87567;273;25268;-80
2024/02/22 04:53:54;;;;;;;19.10;15.80;;;;;;;3.89;100.00;100371.02;87483;273;136491;-74
2024/02/22 04:55:56;;;;;;;18.30;15.00;;;;;;;3.88;100.00;100370.97;87595;270;23369;-77
2024/02/22 04:57:59;;;;;;;19.00;14.50;;;;;;;3.87;100.00;100369.31;87522;271;136583;-77
2024/02/22 05:00:04;;;;;;;19.10;15.00;;;;;;;3.88;100.00;100373.83;87614;270;22565;-77
2024/02/22 05:02:07;;;;;;;;;;;;;;;3.88;100.00;100376.61;87661;273;23114;-76
2024/02/22 05:04:09;;;;;;;18.10;15.20;;;;;;;3.90;100.00;100374.30;87496;270;123753;-78
2024/02/22 05:06:12;;;;;;;17.90;14.70;;;;;;;3.93;100.00;100376.35;87615;274;25185;-74
2024/02/22 05:08:14;;;;;;;19.70;15.10;;;;;;;3.95;100.00;100372.09;87551;273;137089;-80
2024/02/22 05:10:15;;;;;;;18.30;14.50;;;;;;;3.97;100.00;100371.25;87593;270;25129;-79
2024/02/22 05:12:17;;;;;;;18.60;14.70;;;;;;;3.96;100.00;100364.80;87678;270;136980;-72
2024/02/22 05:14:19;;;;;;;18.00;13.80;;;;;;;3.98;100.00;100367.30;87670;271;22586;-73
2024/02/22 05:16:21;;;;;;;16.60;13.90;;;;;;;3.99;100.00;100363.83;87426;274;141309;-72
2024/02/22 05:18:23;;;;;;;16.00;14.00;;;;;;;4.01;100.00;100363.30;87548;266;22533;-72
2024/02/22 05:20:25;;;;;;;17.50;14.70;;;;;;;4.03;100.00;100360.65;87350;270;138169;-74
2024/02/22 05:22:27;;;;;;;21.60;15.30;;;;;;;4.04;100.00;100361.73;87475;271;22682;-72
2024/02/22 05:24:30;;;;;;;19.00;15.30;;;;;;;4.06;100.00;100363.00;87500;271;137211;-73
2024/02/22 05:26:32;;;;;;;18.20;14.70;;;;;;;4.04;100.00;100362.44;87564;269;22595;-75
2024/02/22 05:28:33;;;;;;;16.70;14.70;;;;;;;4.03;100.00;100364.17;87488;277;137151;-75
2024/02/22 05:30:36;;;;;;;18.60;14.70;;;;;;;4.01;100.00;100363.11;87531;265;23998;-74
2024/02/22 05:32:37;;;;;;;14.90;13.00;;;;;;;4.01;100.00;100359.45;87580;271;136961;-74
2024/02/22 05:34:39;;;;;;;16.10;14.10;;;;;;;4.00;100.00;100360.71;87744;274;22559;-76
2024/02/22 05:36:41;;;;;;;18.20;14.20;;;;;;;4.00;100.00;100359.89;87634;274;137130;-74
2024/02/22 05:38:43;;;;;;;19.00;15.10;;;;;;;4.00;100.00;100358.60;87835;269;25265;-75
2024/02/22 05:40:45;;;;;;;18.30;14.70;;;;;;;4.01;100.00;100359.08;87607;271;137489;-73
2024/02/22 05:42:48;;;;;;;19.60;15.70;;;;;;;4.02;100.00;100357.88;87569;271;22552;-75
2024/02/22 05:44:50;;;;;;;19.50;15.20;;;;;;;4.04;100.00;100360.70;87687;262;137162;-77
2024/02/22 05:46:52;;;;;;;16.20;13.90;;;;;;;4.05;100.00;100352.70;87585;270;22575;-73
2024/02/22 05:48:54;;;;;;;15.90;14.10;;;;;;;4.04;100.00;100354.38;87428;273;137366;-75
2024/02/22 05:50:56;;;;;;;20.20;16.30;;;;;;;4.04;100.00;100353.80;87615;270;22573;-74
2024/02/22 05:52:58;;;;;;;18.50;15.90;;;;;;;4.05;100.00;100353.55;87747;266;137243;-74
2024/02/22 05:55:00;;;;;;;15.90;13.40;;;;;;;4.06;100.00;100354.72;87765;274;23632;-73
2024/02/22 05:57:02;;;;;;;17.60;14.80;;;;;;;4.07;100.00;100356.88;87516;263;137290;-75
2024/02/22 05:59:04;;;;;;;17.00;15.00;;;;;;;4.07;100.00;100357.77;87707;271;23977;-74
2024/02/22 06:01:06;;;;;;;17.40;15.50;;;;;;;4.07;100.00;100360.48;87606;265;137217;-73
2024/02/22 06:03:09;;;;;;;16.40;14.40;;;;;;;4.06;100.00;100362.66;88029;269;22554;-74
2024/02/22 06:05:13;;;;;;;19.90;15.00;;;;;;;4.07;100.00;100361.86;87596;273;137762;-75
2024/02/22 06:07:15;;;;;;;19.40;15.80;;;;;;;4.09;100.00;100365.34;87695;269;25239;-72
2024/02/22 06:09:18;;;;;;;16.10;14.40;;;;;;;4.12;100.00;100364.20;87757;271;137118;-74
2024/02/22 06:11:20;;;;;;;18.40;15.10;;;;;;;4.16;100.00;100365.42;87542;275;22844;-74
2024/02/22 06:13:22;;;;;;;16.30;14.40;;;;;;;4.16;100.00;100360.98;87534;274;137779;-74
2024/02/22 06:15:25;;;;;;;20.20;16.20;;;;;;;4.17;100.00;100356.84;87612;271;25124;-75
2024/02/22 06:17:27;;;;;;;20.10;15.50;;;;;;;4.15;100.00;100357.74;87394;268;136836;-73
2024/02/22 06:19:28;;;;;;;17.40;15.20;;;;;;;4.16;100.00;100354.28;87541;266;24210;-74
2024/02/22 06:21:30;;;;;;;18.30;15.60;;;;;;;4.17;100.00;100351.20;87779;270;138029;-75
2024/02/22 06:23:34;;;;;;;17.10;15.00;;;;;;;4.19;100.00;100347.38;87673;273;22571;-74
2024/02/22 06:25:36;;;;;;;21.30;16.30;;;;;;;4.21;100.00;100349.46;87733;271;137141;-75
2024/02/22 06:27:41;;;;;;;17.90;15.80;;;;;;;4.23;100.00;100346.92;87461;268;22558;-74
2024/02/22 06:29:43;;;;;;;18.30;15.10;;;;;;;4.28;100.00;100350.20;87469;270;136912;-74
2024/02/22 06:31:45;;;;;;;20.40;16.10;;;;;;;4.33;100.00;100351.14;87641;269;23094;-75
2024/02/22 06:33:46;;;;;;;21.10;16.20;;;;;;;4.36;100.00;100352.94;87685;269;137286;-74
2024/02/22 06:35:49;;;;;;;19.00;16.00;;;;;;;4.38;100.00;100349.23;87712;274;22594;-75
2024/02/22 06:37:51;;;;;;;17.00;15.20;;;;;;;4.39;100.00;100348.59;87624;273;138025;-76
2024/02/22 06:39:53;;;;;;;20.50;14.70;;;;;;;4.40;100.00;100347.41;87669;273;22573;-74
2024/02/22 06:41:55;;;;;;;17.90;15.60;;;;;;;4.41;100.00;100347.30;87628;270;138241;-75
2024/02/22 06:43:57;;;;;;;19.50;15.80;;;;;;;4.43;100.00;100342.76;87426;271;22562;-76
2024/02/22 06:45:59;;;;;;;21.50;16.90;;;;;;;4.44;100.00;100339.86;87607;278;137079;-76
2024/02/22 06:48:01;;;;;;;23.00;16.30;;;;;;;4.46;100.00;100342.66;87678;278;23283;-75
2024/02/22 06:50:05;;;;;;;19.20;16.70;;;;;;;4.48;100.00;100344.75;87579;271;25151;-72
2024/02/22 06:52:08;;;;;;;20.20;17.60;;;;;;;4.50;100.00;100342.13;87493;266;137239;-75
2024/02/22 06:54:10;;;;;;;18.90;16.60;;;;;;;4.51;100.00;100341.32;87608;271;22569;-75
2024/02/22 06:56:12;;;;;;;18.60;16.20;;;;;;;4.53;100.00;100343.23;87537;263;138254;-74
2024/02/22 06:58:14;;;;;;;19.20;14.60;;;;;;;4.58;100.00;100341.27;87834;262;22580;-74
2024/02/22 07:00:17;;;;;;;18.60;15.20;;;;;;;4.61;100.00;100337.33;87866;274;137512;-76
2024/02/22 07:02:18;;;;;;;22.80;18.50;;;;;;;4.62;100.00;100337.18;87868;270;24048;-77
2024/02/22 07:04:21;;;;;;;21.30;16.10;;;;;;;4.63;100.00;100335.70;87512;266;137985;-74
2024/02/22 07:06:23;;;;;;;19.40;16.80;;;;;;;4.65;100.00;100333.41;87799;266;24030;-76
2024/02/22 07:08:25;;;;;;;27.40;20.40;;;;;;;4.67;100.00;100331.27;87786;266;137419;-83
2024/02/22 07:10:27;;;;;;;22.30;18.60;;;;;;;4.69;100.00;100331.84;87945;273;25194;-87
2024/02/22 07:12:30;;;;;;;20.80;16.50;;;;;;;4.73;100.00;100327.39;87828;270;137313;-81
2024/02/22 07:14:32;;;;;;;19.70;16.50;;;;;;;4.76;100.00;100327.92;88152;274;22516;-87
2024/02/22 07:16:34;;;;;;;20.70;18.20;;;;;;;4.81;100.00;100329.94;87831;268;138418;-82
2024/02/22 07:18:36;;;;;;;23.20;17.60;;;;;;;4.86;100.00;100329.75;87786;265;25024;-85
2024/02/22 07:20:38;;;;;;;25.30;19.50;;;;;;;4.92;100.00;100326.63;87329;270;137224;-80
2024/02/22 07:22:42;;;;;;;20.90;18.10;;;;;;;4.96;100.00;100324.55;87819;273;22560;-84
2024/02/22 07:24:44;;;;;;;19.70;16.70;;;;;;;5.01;100.00;100325.95;87728;269;137371;-76
2024/02/22 07:26:46;;;;;;;22.10;18.20;;;;;;;5.04;100.00;100327.76;88075;271;22587;-83
2024/02/22 07:28:48;;;;;;;22.00;19.40;;;;;;;5.05;100.00;100326.41;88012;264;137841;-73
2024/02/22 07:30:50;;;;;;;22.80;19.10;;;;;;;5.09;100.00;100331.02;88172;270;23424;-79
2024/02/22 07:32:52;;;;;;;23.90;19.40;;;;;;;5.16;100.00;100333.90;88101;270;138527;-81
2024/02/22 07:34:53;;;;;;;22.40;18.70;;;;;;;5.22;100.00;100327.64;87939;266;24487;-84
2024/02/22 07:36:56;;;;;;;27.00;20.60;;;;;;;5.25;100.00;100330.50;87964;269;137115;-80
2024/02/22 07:38:58;;;;;;;21.30;18.90;;;;;;;5.25;100.00;100330.85;88150;273;22529;-80
2024/02/22 07:41:04;;;;;;;20.90;17.70;;;;;;;5.26;100.00;100329.16;88201;265;138059;-83
2024/02/22 07:43:05;;;;;;;19.30;16.80;;;;;;;5.29;100.00;100330.16;88343;270;22565;-81
2024/02/22 07:45:07;;;;;;;19.90;16.90;;;;;;;5.31;100.00;100329.87;87980;277;138367;-82
2024/02/22 07:47:12;;;;;;;20.40;18.00;;;;;;;5.33;100.00;100326.16;88307;278;22976;-81
2024/02/22 07:49:15;;;;;;;21.50;16.90;;;;;;;5.34;100.00;100327.09;89172;268;136823;-81
2024/02/22 07:51:25;;;;;;;20.00;16.30;;;;;;;5.37;100.00;100321.52;90094;262;22582;-79
2024/02/22 07:53:30;;;;;;;22.90;18.90;;;;;;;5.41;100.00;100317.40;89753;275;136932;-81
2024/02/22 07:55:36;;;;;;;22.10;18.50;;;;;;;5.51;100.00;100315.38;90208;274;22589;-74
2024/02/22 07:57:39;;;;;;;26.80;21.70;;;;;;;5.56;100.00;100316.44;89871;267;137377;-80
2024/02/22 07:59:41;;;;;;;24.60;18.80;;;;;;;5.57;100.00;100319.05;90036;265;23556;-75
2024/02/22 08:01:42;;;;;;;21.60;17.70;;;;;;;5.60;100.00;100318.31;89706;276;138168;-77
2024/02/22 08:03:45;;;;;;;21.50;18.40;;;;;;;5.63;100.00;100313.44;90062;274;23352;-81
2024/02/22 08:05:48;;;;;;;23.70;20.00;;;;;;;5.67;100.00;100310.77;89485;278;136965;-82
2024/02/22 08:07:50;;;;;;;25.50;19.80;;;;;;;5.73;100.00;100311.73;88431;271;22553;-83
2024/02/22 08:09:52;;;;;;;22.00;18.90;;;;;;;5.79;100.00;100312.73;88297;266;137900;-81
2024/02/22 08:11:54;;;;;;;23.70;19.50;;;;;;;5.84;100.00;100312.19;87748;271;22584;-83
2024/02/22 08:13:56;;;;;;;22.80;19.00;;;;;;;5.89;100.00;100306.09;87684;270;136606;-82
2024/02/22 08:16:03;;;;;;;26.60;21.20;;;;;;;5.91;100.00;100303.48;87627;279;24299;-83
2024/02/22 08:18:07;;;;;;;24.60;20.10;;;;;;;5.92;100.00;100299.69;87674;266;22564;-80
2024/02/22 08:20:09;;;;;;;24.50;21.10;;;;;;;5.95;100.00;100298.06;87731;269;137598;-82
2024/02/22 08:22:12;;;;;;;26.00;21.70;;;;;;;6.00;100.00;100295.33;87635;271;23389;-83
2024/02/22 08:24:13;;;;;;;25.40;21.50;;;;;;;6.09;100.00;100295.88;87630;268;137641;-81
2024/02/22 08:26:16;;;;;;;29.30;24.20;;;;;;;6.11;100.00;100295.81;87929;266;22577;-81
2024/02/22 08:28:18;;;;;;;28.90;23.40;;;;;;;6.11;100.00;100293.23;87695;279;136925;-83
2024/02/22 08:30:20;;;;;;;25.90;23.10;;;;;;;6.15;100.00;100290.87;87589;275;24574;-82
2024/02/22 08:32:22;;;;;;;29.40;23.90;;;;;;;6.18;100.00;100287.16;87606;271;138159;-81
2024/02/22 08:34:24;;;;;;;25.10;21.20;;;;;;;6.21;100.00;100288.75;87875;277;23934;-80
2024/02/22 08:36:26;;;;;;;25.40;21.70;;;;;;;6.21;100.00;100289.17;87840;268;137060;-85
2024/02/22 08:38:28;;;;;;;25.00;21.70;;;;;;;6.19;100.00;100284.94;88379;261;22600;-81
2024/02/22 08:40:30;;;;;;;26.40;22.40;;;;;;;6.19;100.00;100283.30;89328;270;137683;-78
2024/02/22 08:42:40;;;;;;;30.70;21.90;;;;;;;6.22;100.00;100283.27;88607;272;24136;-82
2024/02/22 08:44:43;;;;;;;26.10;21.10;;;;;;;6.29;100.00;100279.36;88593;271;137039;-77
2024/02/22 08:46:44;;;;;;;26.10;21.80;;;;;;;6.36;100.00;100281.07;89506;271;22598;-74
2024/02/22 08:48:46;;;;;;;24.80;22.10;;;;;;;6.43;100.00;100282.45;88253;278;136751;-82
2024/02/22 08:50:49;;;;;;;24.90;22.00;;;;;;;6.51;100.00;100280.13;87961;273;23689;-78
2024/02/22 08:52:51;;;;;;;28.10;22.50;;;;;;;6.61;100.00;100280.86;87698;270;137241;-74
2024/02/22 08:54:53;;;;;;;30.20;24.90;;;;;;;6.70;100.00;100279.20;87561;272;22860;-73
2024/02/22 08:56:55;;;;;;;27.80;22.90;;;;;;;6.79;100.00;100269.20;87385;271;136599;-73
2024/02/22 08:58:57;;;;;;;28.30;21.90;;;;;;;6.89;100.00;100273.19;87522;272;22549;-75
2024/02/22 09:00:59;;;;;;;28.80;22.50;;;;;;;6.93;100.00;100276.39;87308;270;136782;-71
2024/02/22 09:03:01;;;;;;;26.00;21.70;;;;;;;6.93;100.00;100274.77;87670;269;23477;-72
2024/02/22 09:05:06;;;;;;;25.80;20.70;;;;;;;6.88;100.00;100273.61;87523;274;138161;-73
2024/02/22 09:07:08;;;;;;;29.50;22.40;;;;;;;6.87;100.00;100265.39;87726;271;25328;-72
2024/02/22 09:09:10;;;;;;;24.80;22.10;;;;;;;6.87;100.00;100266.44;87374;266;137136;-70
2024/02/22 09:11:12;;;;;;;29.90;22.50;;;;;;;6.90;100.00;100259.61;87149;270;25306;-74
2024/02/22 09:13:15;;;;;;;29.20;24.30;;;;;;;6.96;100.00;100263.71;87603;270;137819;-73
2024/02/22 09:15:17;;;;;;;28.70;22.40;;;;;;;7.04;100.00;100259.98;87584;271;22664;-75
2024/02/22 09:17:19;;;;;;;31.10;23.30;;;;;;;7.10;100.00;100261.08;87491;270;138707;-71
2024/02/22 09:19:21;;;;;;;28.30;22.60;;;;;;;7.16;100.00;100258.70;88002;270;22580;-71
2024/02/22 09:21:22;;;;;;;33.90;25.30;;;;;;;7.23;100.00;100255.98;87339;268;137471;-74
2024/02/22 09:23:24;;;;;;;26.90;22.00;;;;;;;7.32;100.00;100256.73;87557;274;23773;-74